Time;durP1;ratioP1;P1;durP2;ratioP2;P2;SDS_P1;SDS_P2;PMS_P1;PMS_P2;Temp;Humidity;BMP_temperature;BMP_pressure;BME280_temperature;BME280_humidity;BME280_pressure;Samples;Min_cycle;Max_cycle;Signal;HPM_P1;HPM_P2
2021/07/18 00:00:41;;;;;;;3.95;3.28;;;;;;;;;;3602664;40;20276;-81
2021/07/18 00:03:14;;;;;;;4.70;3.20;;;;;;;;;;3602695;40;20214;-81
2021/07/18 00:05:47;;;;;;;4.93;3.10;;;;;;;;;;3602184;40;20234;-83
2021/07/18 00:08:14;;;;;;;5.45;3.22;;;;;;;;;;3594111;40;20293;-81
2021/07/18 00:10:42;;;;;;;4.50;3.20;;;;;;;;;;3602594;40;20226;-85
2021/07/18 00:13:10;;;;;;;5.78;3.15;;;;;;;;;;3602125;40;20234;-82
2021/07/18 00:15:51;;;;;;;6.60;3.50;;;;;;;;;;3602654;40;20238;-81
2021/07/18 00:18:37;;;;;;;4.43;3.22;;;;;;;;;;3602648;40;20234;-84
2021/07/18 00:21:04;;;;;;;6.03;3.58;;;;;;;;;;3602506;40;20266;-79
2021/07/18 00:23:43;;;;;;;4.55;3.70;;;;;;;;;;3602227;40;20226;-82
2021/07/18 00:26:11;;;;;;;4.18;3.08;;;;;;;;;;3593778;40;20225;-81
2021/07/18 00:29:05;;;;;;;5.35;4.10;;;;;;;;;;3602575;40;20227;-81
2021/07/18 00:31:33;;;;;;;6.18;3.08;;;;;;;;;;3602419;40;20254;-80
2021/07/18 00:34:06;;;;;;;5.68;3.70;;;;;;;;;;3602489;40;20227;-81
2021/07/18 00:36:34;;;;;;;4.35;3.95;;;;;;;;;;3601843;40;20237;-81
2021/07/18 00:39:15;;;;;;;5.40;3.92;;;;;;;;;;3598370;39;20227;-81
2021/07/18 00:41:42;;;;;;;4.35;3.75;;;;;;;;;;3602275;39;20292;-82
2021/07/18 00:44:17;;;;;;;7.63;4.00;;;;;;;;;;3602385;39;20230;-81
2021/07/18 00:46:44;;;;;;;3.63;3.28;;;;;;;;;;3602388;39;20227;-81
2021/07/18 00:49:12;;;;;;;5.15;3.78;;;;;;;;;;3602370;39;20230;-80
2021/07/18 00:51:39;;;;;;;4.82;3.58;;;;;;;;;;3602221;39;20245;-81
2021/07/18 00:54:13;;;;;;;6.70;3.67;;;;;;;;;;3603882;39;20272;-79
2021/07/18 00:56:41;;;;;;;3.47;3.17;;;;;;;;;;3603618;39;20241;-82
2021/07/18 00:59:08;;;;;;;5.95;3.90;;;;;;;;;;3603853;40;20242;-80
2021/07/18 01:01:56;;;;;;;6.75;4.03;;;;;;;;;;3603610;40;20367;-81
2021/07/18 01:04:23;;;;;;;6.05;3.85;;;;;;;;;;3595099;40;20238;-83
2021/07/18 01:06:51;;;;;;;8.50;4.78;;;;;;;;;;3603748;40;20222;-84
2021/07/18 01:09:18;;;;;;;5.75;4.07;;;;;;;;;;3603730;40;20234;-82
2021/07/18 01:11:46;;;;;;;7.35;3.97;;;;;;;;;;3603607;40;20246;-81
2021/07/18 01:14:13;;;;;;;7.03;5.28;;;;;;;;;;3603087;40;20236;-83
2021/07/18 01:16:40;;;;;;;7.95;5.13;;;;;;;;;;3595059;40;20254;-80
2021/07/18 01:19:10;;;;;;;8.48;4.82;;;;;;;;;;3594957;40;20235;-86
2021/07/18 01:21:38;;;;;;;6.82;4.55;;;;;;;;;;3603037;40;20258;-80
2021/07/18 01:24:15;;;;;;;6.55;4.68;;;;;;;;;;3603624;40;20234;-81
2021/07/18 01:26:42;;;;;;;6.13;4.25;;;;;;;;;;3586596;40;20246;-81
2021/07/18 01:29:10;;;;;;;6.25;4.70;;;;;;;;;;3603564;40;20237;-81
2021/07/18 01:31:37;;;;;;;9.20;5.75;;;;;;;;;;3603431;40;20242;-83
2021/07/18 01:34:04;;;;;;;8.60;5.57;;;;;;;;;;3602918;40;20239;-80
2021/07/18 01:36:38;;;;;;;10.77;5.50;;;;;;;;;;3595382;40;20277;-85
2021/07/18 01:39:06;;;;;;;7.78;6.13;;;;;;;;;;3594826;40;20246;-82
2021/07/18 01:41:35;;;;;;;11.73;6.75;;;;;;;;;;3602833;40;20242;-82
2021/07/18 01:44:21;;;;;;;7.70;6.22;;;;;;;;;;3603638;40;20214;-83
2021/07/18 01:46:54;;;;;;;10.20;6.82;;;;;;;;;;3603125;40;20291;-84
2021/07/18 01:49:21;;;;;;;8.20;6.22;;;;;;;;;;3603458;40;20237;-81
2021/07/18 01:51:54;;;;;;;8.95;6.53;;;;;;;;;;3603310;40;20254;-81
2021/07/18 01:54:40;;;;;;;9.90;6.57;;;;;;;;;;3595924;40;20779;-85
2021/07/18 01:57:15;;;;;;;12.00;7.05;;;;;;;;;;3594920;40;20238;-85
2021/07/18 01:59:48;;;;;;;8.65;7.55;;;;;;;;;;3603086;40;20238;-83
2021/07/18 02:02:22;;;;;;;9.32;7.13;;;;;;;;;;3603006;40;20230;-83
2021/07/18 02:05:08;;;;;;;9.07;6.32;;;;;;;;;;3603419;40;20221;-89
2021/07/18 02:16:02;;;;;;;14.15;7.35;;;;;;;;;;3635529;23;20253;-84
2021/07/18 02:18:29;;;;;;;9.25;8.23;;;;;;;;;;3592608;40;20223;-84
2021/07/18 02:23:56;;;;;;;11.63;7.65;;;;;;;;;;3592274;39;20238;-84
2021/07/18 02:26:37;;;;;;;12.07;7.82;;;;;;;;;;3635807;23;20246;-80
2021/07/18 02:29:11;;;;;;;13.57;8.38;;;;;;;;;;3603174;40;20242;-80
2021/07/18 02:31:45;;;;;;;13.60;9.18;;;;;;;;;;3602309;39;20262;-81
2021/07/18 02:34:24;;;;;;;17.30;8.80;;;;;;;;;;3601094;40;20708;-82
2021/07/18 02:36:51;;;;;;;13.20;8.40;;;;;;;;;;3601839;40;20238;-81
2021/07/18 02:39:25;;;;;;;9.98;8.52;;;;;;;;;;3634879;23;20239;-81
2021/07/18 02:41:52;;;;;;;16.92;9.45;;;;;;;;;;3592654;39;20690;-81
2021/07/18 02:44:19;;;;;;;10.02;7.68;;;;;;;;;;3602190;39;20246;-80
2021/07/18 02:46:54;;;;;;;11.00;8.65;;;;;;;;;;3594383;39;20223;-82
2021/07/18 02:49:21;;;;;;;10.90;7.88;;;;;;;;;;3594217;39;20922;-80
2021/07/18 02:51:55;;;;;;;8.88;7.85;;;;;;;;;;3602981;39;20253;-80
2021/07/18 02:54:34;;;;;;;8.68;7.45;;;;;;;;;;3603062;39;20254;-80
2021/07/18 02:57:08;;;;;;;14.68;7.80;;;;;;;;;;3603081;39;20242;-79
2021/07/18 02:59:41;;;;;;;9.70;8.75;;;;;;;;;;3584278;40;20236;-79
2021/07/18 03:02:10;;;;;;;8.77;7.72;;;;;;;;;;3583795;40;20255;-79
2021/07/18 03:04:37;;;;;;;13.07;7.60;;;;;;;;;;3592992;40;20216;-80
2021/07/18 03:07:10;;;;;;;9.77;7.88;;;;;;;;;;3584810;40;20215;-81
2021/07/18 03:09:50;;;;;;;10.60;8.65;;;;;;;;;;3592849;40;20246;-81
2021/07/18 03:12:23;;;;;;;9.48;8.10;;;;;;;;;;3592817;40;20259;-82
2021/07/18 03:14:56;;;;;;;11.55;9.10;;;;;;;;;;3592794;40;20715;-82
2021/07/18 03:17:25;;;;;;;9.07;8.02;;;;;;;;;;3592791;40;20215;-83
2021/07/18 03:20:12;;;;;;;9.40;7.80;;;;;;;;;;3585507;40;20247;-80
2021/07/18 03:22:57;;;;;;;12.00;8.25;;;;;;;;;;3592716;40;20247;-80
2021/07/18 03:25:24;;;;;;;11.20;8.27;;;;;;;;;;3592869;40;20238;-80
2021/07/18 03:27:52;;;;;;;9.68;8.23;;;;;;;;;;3592787;40;20231;-80
2021/07/18 03:30:21;;;;;;;16.42;8.38;;;;;;;;;;3592443;40;20238;-80
2021/07/18 03:32:50;;;;;;;13.98;9.32;;;;;;;;;;3592579;40;20812;-81
2021/07/18 03:35:17;;;;;;;10.10;8.40;;;;;;;;;;3584209;40;20648;-80
2021/07/18 03:37:51;;;;;;;12.30;8.38;;;;;;;;;;3584117;40;20243;-80
2021/07/18 03:40:24;;;;;;;12.23;8.23;;;;;;;;;;3592681;40;20239;-80
2021/07/18 03:42:52;;;;;;;14.43;9.48;;;;;;;;;;3592558;40;20296;-81
2021/07/18 03:45:25;;;;;;;11.77;8.13;;;;;;;;;;3592706;40;20231;-80
2021/07/18 03:47:54;;;;;;;13.68;9.88;;;;;;;;;;3592637;40;20234;-79
2021/07/18 03:50:27;;;;;;;11.73;8.88;;;;;;;;;;3599267;39;20285;-82
2021/07/18 03:53:01;;;;;;;11.68;9.52;;;;;;;;;;3602768;39;20222;-82
2021/07/18 03:55:28;;;;;;;13.45;9.65;;;;;;;;;;3602739;39;20233;-81
2021/07/18 03:57:56;;;;;;;9.32;8.38;;;;;;;;;;3594006;39;20282;-82
2021/07/18 04:00:23;;;;;;;10.55;9.18;;;;;;;;;;3594035;39;20218;-81
2021/07/18 04:02:50;;;;;;;11.27;7.60;;;;;;;;;;3602570;39;20237;-80
2021/07/18 04:05:20;;;;;;;13.75;10.07;;;;;;;;;;3602634;39;20234;-80
2021/07/18 04:07:48;;;;;;;12.15;9.02;;;;;;;;;;3600132;39;20234;-86
2021/07/18 04:10:35;;;;;;;10.50;9.02;;;;;;;;;;3595333;39;20230;-80
2021/07/18 04:13:02;;;;;;;12.15;8.82;;;;;;;;;;3602377;39;20226;-81
2021/07/18 04:15:30;;;;;;;13.23;9.18;;;;;;;;;;3602165;39;20808;-84
2021/07/18 04:18:07;;;;;;;14.18;8.93;;;;;;;;;;3593914;39;20223;-81
2021/07/18 04:20:48;;;;;;;13.77;10.02;;;;;;;;;;3602517;39;20221;-81
2021/07/18 04:23:27;;;;;;;12.07;9.73;;;;;;;;;;3602440;39;20230;-82
2021/07/18 04:25:55;;;;;;;12.07;10.65;;;;;;;;;;3602029;39;20237;-84
2021/07/18 04:28:34;;;;;;;22.10;10.68;;;;;;;;;;3602489;39;20280;-82
2021/07/18 04:31:01;;;;;;;16.08;10.40;;;;;;;;;;3602477;39;20238;-81
2021/07/18 04:33:49;;;;;;;14.95;10.48;;;;;;;;;;3602519;39;20233;-83
2021/07/18 04:36:23;;;;;;;12.30;10.63;;;;;;;;;;3602434;39;20226;-80
2021/07/18 04:38:58;;;;;;;16.70;11.45;;;;;;;;;;3593965;39;20301;-82
2021/07/18 04:41:25;;;;;;;12.00;10.68;;;;;;;;;;3602159;39;20276;-82
2021/07/18 04:43:52;;;;;;;15.55;12.02;;;;;;;;;;3602254;39;20230;-81
2021/07/18 04:46:32;;;;;;;14.90;11.32;;;;;;;;;;3601934;39;20219;-82
2021/07/18 04:49:17;;;;;;;16.52;11.70;;;;;;;;;;3602354;39;20257;-84
2021/07/18 04:51:46;;;;;;;12.88;11.57;;;;;;;;;;3602266;39;20245;-81
2021/07/18 04:54:13;;;;;;;19.90;13.60;;;;;;;;;;3593486;39;20222;-81
2021/07/18 04:56:41;;;;;;;13.70;12.30;;;;;;;;;;3602223;39;20233;-83
2021/07/18 04:59:08;;;;;;;15.65;11.52;;;;;;;;;;3602185;39;20238;-82
2021/07/18 05:01:36;;;;;;;12.70;10.60;;;;;;;;;;3590005;39;20245;-80
2021/07/18 05:04:10;;;;;;;18.05;11.73;;;;;;;;;;3599020;39;20239;-82
2021/07/18 05:06:37;;;;;;;14.57;12.45;;;;;;;;;;3602150;39;20230;-86
2021/07/18 05:09:25;;;;;;;19.60;14.45;;;;;;;;;;3595007;39;20284;-82
2021/07/18 05:11:52;;;;;;;16.45;13.10;;;;;;;;;;3601929;39;20300;-80
2021/07/18 05:14:19;;;;;;;17.55;13.60;;;;;;;;;;3602146;39;20237;-82
2021/07/18 05:17:05;;;;;;;17.90;13.75;;;;;;;;;;3602149;39;20292;-81
2021/07/18 05:19:51;;;;;;;15.90;12.82;;;;;;;;;;3602153;39;20231;-81
2021/07/18 05:22:25;;;;;;;17.90;14.48;;;;;;;;;;3601835;39;20238;-82
2021/07/18 05:24:53;;;;;;;20.08;15.00;;;;;;;;;;3593428;39;20226;-82
2021/07/18 05:27:21;;;;;;;27.42;15.73;;;;;;;;;;3602037;39;20243;-81
2021/07/18 05:30:08;;;;;;;17.50;14.77;;;;;;;;;;3602089;39;20266;-81
2021/07/18 05:32:53;;;;;;;20.73;13.30;;;;;;;;;;3601331;39;20245;-81
2021/07/18 05:35:20;;;;;;;17.77;13.93;;;;;;;;;;3593333;39;20265;-81
2021/07/18 05:37:48;;;;;;;17.50;12.18;;;;;;;;;;3593803;39;20229;-86
2021/07/18 05:40:35;;;;;;;15.52;12.90;;;;;;;;;;3603550;39;20249;-82
2021/07/18 05:43:03;;;;;;;15.48;12.88;;;;;;;;;;3603433;39;20238;-80
2021/07/18 05:45:36;;;;;;;20.80;14.77;;;;;;;;;;3595152;39;20210;-82
2021/07/18 05:48:05;;;;;;;16.63;13.73;;;;;;;;;;3594871;39;20221;-80
2021/07/18 05:50:32;;;;;;;16.20;14.20;;;;;;;;;;3603413;39;20237;-80
2021/07/18 05:53:12;;;;;;;19.02;14.68;;;;;;;;;;3603471;39;20225;-82
2021/07/18 05:55:41;;;;;;;24.48;17.42;;;;;;;;;;3603357;39;20264;-81
2021/07/18 05:58:08;;;;;;;25.38;17.52;;;;;;;;;;3603406;39;20218;-81
2021/07/18 06:00:35;;;;;;;19.15;16.15;;;;;;;;;;3603370;39;20210;-83
2021/07/18 06:03:03;;;;;;;18.77;15.90;;;;;;;;;;3603225;39;20242;-82
2021/07/18 06:05:49;;;;;;;22.13;15.95;;;;;;;;;;3596101;39;20233;-81
2021/07/18 06:08:16;;;;;;;20.52;16.38;;;;;;;;;;3603300;39;20238;-82
2021/07/18 06:10:45;;;;;;;21.70;16.80;;;;;;;;;;3603368;39;20234;-81
2021/07/18 06:13:18;;;;;;;21.27;15.95;;;;;;;;;;3603321;39;20222;-81
2021/07/18 06:15:46;;;;;;;19.77;16.42;;;;;;;;;;3594700;39;20254;-82
2021/07/18 06:18:13;;;;;;;16.95;14.98;;;;;;;;;;3603294;39;20230;-81
2021/07/18 06:20:59;;;;;;;24.17;15.48;;;;;;;;;;3603345;39;20758;-82
2021/07/18 06:23:26;;;;;;;18.75;14.52;;;;;;;;;;3603201;39;20230;-82
2021/07/18 06:26:01;;;;;;;16.02;12.10;;;;;;;;;;3603278;39;20240;-85
2021/07/18 06:28:28;;;;;;;15.43;12.10;;;;;;;;;;3594557;39;20247;-81
2021/07/18 06:31:01;;;;;;;14.00;11.45;;;;;;;;;;3603234;39;20230;-80
2021/07/18 06:33:47;;;;;;;16.25;12.27;;;;;;;;;;3595972;39;20244;-81
2021/07/18 06:36:27;;;;;;;16.02;12.80;;;;;;;;;;3603134;39;20219;-81
2021/07/18 06:38:55;;;;;;;13.88;12.15;;;;;;;;;;3603177;39;20242;-83
2021/07/18 06:41:23;;;;;;;14.93;12.25;;;;;;;;;;3602608;39;20253;-83
2021/07/18 06:43:51;;;;;;;12.38;10.57;;;;;;;;;;3603193;39;20219;-82
2021/07/18 06:46:18;;;;;;;13.77;11.20;;;;;;;;;;3594377;39;20296;-85
2021/07/18 06:48:46;;;;;;;22.15;13.38;;;;;;;;;;3602829;39;20231;-80
2021/07/18 06:51:31;;;;;;;17.83;11.88;;;;;;;;;;3602629;39;20226;-80
2021/07/18 06:54:05;;;;;;;12.50;10.32;;;;;;;;;;3594458;39;20276;-82
2021/07/18 06:56:40;;;;;;;15.40;10.77;;;;;;;;;;3602708;39;20818;-82
2021/07/18 06:59:13;;;;;;;13.60;10.35;;;;;;;;;;3602671;39;20292;-81
2021/07/18 07:01:40;;;;;;;13.68;12.25;;;;;;;;;;3602931;39;20250;-81
2021/07/18 07:04:08;;;;;;;14.98;10.95;;;;;;;;;;3602992;39;20233;-82
2021/07/18 07:06:53;;;;;;;14.27;10.60;;;;;;;;;;3603109;39;20246;-81
2021/07/18 07:09:20;;;;;;;15.50;12.45;;;;;;;;;;3602994;39;20738;-82
2021/07/18 07:11:49;;;;;;;14.05;11.32;;;;;;;;;;3602798;39;20222;-83
2021/07/18 07:14:22;;;;;;;13.95;9.57;;;;;;;;;;3594947;39;20246;-82
2021/07/18 07:16:56;;;;;;;12.02;8.93;;;;;;;;;;3602932;39;20226;-82
2021/07/18 07:19:23;;;;;;;10.98;8.55;;;;;;;;;;3594270;39;20263;-82
2021/07/18 07:21:50;;;;;;;10.48;7.47;;;;;;;;;;3602734;39;20234;-82
2021/07/18 07:24:24;;;;;;;10.43;8.70;;;;;;;;;;3602922;39;20242;-82
2021/07/18 07:26:58;;;;;;;12.00;8.13;;;;;;;;;;3594735;39;20257;-83
2021/07/18 07:29:44;;;;;;;11.70;9.43;;;;;;;;;;3602384;39;20234;-85
2021/07/18 07:32:11;;;;;;;12.65;8.65;;;;;;;;;;3602711;39;20235;-82
2021/07/18 07:34:44;;;;;;;9.80;7.25;;;;;;;;;;3602870;39;20238;-85
2021/07/18 07:37:11;;;;;;;12.43;6.97;;;;;;;;;;3602786;39;20337;-83
2021/07/18 07:39:44;;;;;;;11.25;7.13;;;;;;;;;;3602354;39;20226;-82
2021/07/18 07:42:25;;;;;;;10.05;6.70;;;;;;;;;;3602720;39;20262;-81
2021/07/18 07:44:53;;;;;;;9.80;6.60;;;;;;;;;;3594167;39;20233;-82
2021/07/18 07:47:32;;;;;;;8.95;6.50;;;;;;;;;;3594139;39;20211;-83
2021/07/18 07:50:06;;;;;;;8.45;6.72;;;;;;;;;;3602841;39;20211;-82
2021/07/18 07:52:34;;;;;;;10.30;6.13;;;;;;;;;;3594021;39;20715;-82
2021/07/18 07:55:01;;;;;;;9.05;5.90;;;;;;;;;;3602650;39;20284;-81
2021/07/18 07:57:42;;;;;;;8.70;5.43;;;;;;;;;;3584743;40;20231;-81
2021/07/18 08:00:22;;;;;;;6.38;4.63;;;;;;;;;;3592401;40;20239;-82
2021/07/18 08:02:55;;;;;;;10.00;5.18;;;;;;;;;;3592169;40;20243;-82
2021/07/18 08:05:34;;;;;;;11.07;5.47;;;;;;;;;;3584040;40;20765;-82
2021/07/18 08:08:02;;;;;;;10.77;7.10;;;;;;;;;;3592482;40;20261;-84
2021/07/18 08:10:38;;;;;;;10.98;7.32;;;;;;;;;;3592556;40;20222;-84
2021/07/18 08:13:06;;;;;;;10.38;6.85;;;;;;;;;;3592437;40;20246;-82
2021/07/18 08:15:35;;;;;;;10.60;6.63;;;;;;;;;;3583839;40;20235;-82
2021/07/18 08:18:02;;;;;;;9.20;5.85;;;;;;;;;;3592405;40;20227;-82
2021/07/18 08:20:30;;;;;;;7.53;6.45;;;;;;;;;;3592473;40;20690;-85
2021/07/18 08:22:58;;;;;;;8.73;6.72;;;;;;;;;;3583661;40;20235;-82
2021/07/18 08:25:31;;;;;;;6.28;5.57;;;;;;;;;;3584182;40;20246;-83
2021/07/18 08:27:58;;;;;;;8.43;6.80;;;;;;;;;;3583880;40;20218;-82
2021/07/18 08:30:27;;;;;;;8.98;6.82;;;;;;;;;;3583757;40;20223;-82
2021/07/18 08:33:01;;;;;;;8.55;7.05;;;;;;;;;;3592296;40;20271;-83
2021/07/18 08:35:28;;;;;;;7.22;5.97;;;;;;;;;;3592403;40;20227;-82
2021/07/18 08:37:55;;;;;;;7.05;5.78;;;;;;;;;;3592628;39;20292;-83
2021/07/18 08:40:36;;;;;;;8.02;6.25;;;;;;;;;;3601494;39;20221;-84
2021/07/18 08:43:04;;;;;;;9.68;5.75;;;;;;;;;;3602279;39;20246;-82
2021/07/18 08:45:39;;;;;;;8.95;6.40;;;;;;;;;;3594137;39;20211;-80
2021/07/18 08:48:07;;;;;;;8.60;7.50;;;;;;;;;;3601915;39;20277;-82
2021/07/18 08:50:34;;;;;;;7.68;6.65;;;;;;;;;;3593226;39;20221;-82
2021/07/18 08:53:02;;;;;;;8.98;6.53;;;;;;;;;;3602284;39;20804;-81
2021/07/18 08:55:35;;;;;;;6.93;6.22;;;;;;;;;;3593708;39;20233;-82
2021/07/18 08:58:03;;;;;;;8.88;6.30;;;;;;;;;;3602292;39;20222;-81
2021/07/18 09:00:30;;;;;;;6.70;6.03;;;;;;;;;;3602222;39;20226;-81
2021/07/18 09:02:59;;;;;;;9.02;6.55;;;;;;;;;;3602155;39;20242;-82
2021/07/18 09:05:26;;;;;;;7.93;7.13;;;;;;;;;;3593585;39;20820;-82
2021/07/18 09:07:59;;;;;;;6.93;6.22;;;;;;;;;;3601885;39;20203;-85
2021/07/18 09:10:33;;;;;;;10.90;6.82;;;;;;;;;;3602131;39;20237;-84
2021/07/18 09:13:07;;;;;;;7.38;6.78;;;;;;;;;;3594752;39;20296;-83
2021/07/18 09:15:42;;;;;;;7.43;6.70;;;;;;;;;;3595109;39;20277;-82
2021/07/18 09:18:17;;;;;;;6.90;5.93;;;;;;;;;;3595213;39;20226;-83
2021/07/18 09:20:45;;;;;;;8.02;6.30;;;;;;;;;;3603672;39;20686;-82
2021/07/18 09:23:14;;;;;;;9.73;6.32;;;;;;;;;;3594836;39;20234;-84
2021/07/18 09:25:41;;;;;;;5.72;5.20;;;;;;;;;;3603666;39;20203;-82
2021/07/18 09:28:12;;;;;;;8.48;6.40;;;;;;;;;;3595113;39;20214;-81
2021/07/18 09:30:46;;;;;;;6.97;5.57;;;;;;;;;;3603640;39;20226;-82
2021/07/18 09:33:24;;;;;;;6.57;5.65;;;;;;;;;;3603663;39;20247;-82
2021/07/18 09:35:52;;;;;;;7.10;5.10;;;;;;;;;;3603698;39;20238;-84
2021/07/18 09:38:22;;;;;;;8.70;5.88;;;;;;;;;;3594964;39;20233;-83
2021/07/18 09:41:10;;;;;;;7.43;5.68;;;;;;;;;;3596263;39;20304;-88
2021/07/18 09:43:37;;;;;;;7.32;5.18;;;;;;;;;;3603581;39;20206;-83
2021/07/18 09:46:08;;;;;;;5.22;4.35;;;;;;;;;;3595018;39;20832;-83
2021/07/18 09:48:46;;;;;;;6.72;4.93;;;;;;;;;;3603142;39;20222;-84
2021/07/18 09:51:33;;;;;;;5.97;4.25;;;;;;;;;;3603466;39;20807;-81
2021/07/18 09:54:08;;;;;;;4.65;4.25;;;;;;;;;;3603503;39;20226;-82
2021/07/18 09:56:54;;;;;;;4.57;4.18;;;;;;;;;;3603631;39;20234;-83
2021/07/18 09:59:27;;;;;;;6.45;4.10;;;;;;;;;;3594853;39;20253;-86
2021/07/18 10:02:00;;;;;;;5.78;4.68;;;;;;;;;;3595197;39;20706;-82
2021/07/18 10:04:30;;;;;;;7.85;4.07;;;;;;;;;;3594773;39;20214;-81
2021/07/18 10:07:06;;;;;;;4.93;4.43;;;;;;;;;;3603031;39;20250;-82
2021/07/18 10:09:46;;;;;;;4.82;3.40;;;;;;;;;;3603346;39;20230;-82
2021/07/18 10:12:19;;;;;;;3.97;3.58;;;;;;;;;;3602907;39;20230;-81
2021/07/18 10:14:59;;;;;;;5.80;3.72;;;;;;;;;;3603230;39;20264;-82
2021/07/18 10:17:28;;;;;;;4.03;3.63;;;;;;;;;;3602954;39;20273;-82
2021/07/18 10:19:57;;;;;;;7.25;4.32;;;;;;;;;;3602936;39;20251;-83
2021/07/18 10:22:25;;;;;;;4.93;3.58;;;;;;;;;;3603119;39;20241;-81
2021/07/18 10:24:54;;;;;;;5.65;4.45;;;;;;;;;;3594079;39;20222;-82
2021/07/18 10:27:22;;;;;;;4.03;3.72;;;;;;;;;;3603021;39;20234;-85
2021/07/18 10:30:08;;;;;;;6.85;3.63;;;;;;;;;;3594227;39;20210;-83
2021/07/18 10:32:43;;;;;;;8.98;5.47;;;;;;;;;;3593269;40;20788;-83
2021/07/18 10:35:13;;;;;;;6.70;4.78;;;;;;;;;;3589264;39;20237;-82
2021/07/18 10:37:40;;;;;;;9.20;4.47;;;;;;;;;;3603226;39;20234;-82
2021/07/18 10:40:15;;;;;;;5.13;4.57;;;;;;;;;;3602907;39;20298;-80
2021/07/18 10:42:48;;;;;;;5.00;3.88;;;;;;;;;;3602848;39;20230;-79
2021/07/18 10:45:23;;;;;;;4.07;3.53;;;;;;;;;;3602872;39;20257;-79
2021/07/18 10:48:03;;;;;;;5.07;3.63;;;;;;;;;;3602652;39;20240;-82
2021/07/18 10:50:58;;;;;;;4.47;4.07;;;;;;;;;;3599010;39;20238;-79
2021/07/18 10:53:35;;;;;;;4.13;3.65;;;;;;;;;;3574237;39;20997;-81
2021/07/18 10:56:04;;;;;;;4.53;3.78;;;;;;;;;;3588755;39;20215;-81
2021/07/18 10:58:54;;;;;;;5.38;4.15;;;;;;;;;;3602957;39;20262;-82
2021/07/18 11:01:38;;;;;;;4.25;3.85;;;;;;;;;;3601512;39;20423;-83
2021/07/18 11:04:26;;;;;;;7.07;5.00;;;;;;;;;;3597385;40;20415;-79
2021/07/18 11:07:15;;;;;;;5.28;4.78;;;;;;;;;;3601815;39;20478;-86
2021/07/18 11:09:50;;;;;;;3.85;3.47;;;;;;;;;;3600850;39;20255;-83
2021/07/18 11:12:22;;;;;;;4.28;3.72;;;;;;;;;;3602736;39;20880;-80
2021/07/18 11:14:50;;;;;;;4.40;3.70;;;;;;;;;;3602893;39;20296;-81
2021/07/18 11:17:26;;;;;;;12.50;8.90;;;;;;;;;;3600130;39;20423;-81
2021/07/18 11:20:01;;;;;;;4.10;3.33;;;;;;;;;;3592436;39;20462;-81
2021/07/18 11:23:01;;;;;;;5.25;4.75;;;;;;;;;;3602363;39;20476;-81
2021/07/18 11:25:44;;;;;;;3.50;2.88;;;;;;;;;;3592811;40;20230;-80
2021/07/18 11:28:36;;;;;;;5.88;3.35;;;;;;;;;;3589211;39;20238;-82
2021/07/18 11:31:20;;;;;;;4.15;3.75;;;;;;;;;;3602649;39;20233;-80
2021/07/18 11:34:06;;;;;;;4.90;3.33;;;;;;;;;;3593738;39;20741;-81
2021/07/18 11:36:55;;;;;;;20.85;11.90;;;;;;;;;;3590426;39;20250;-82
2021/07/18 11:39:26;;;;;;;4.47;3.95;;;;;;;;;;3601999;39;20231;-82
2021/07/18 11:41:55;;;;;;;4.07;3.22;;;;;;;;;;3594113;39;20245;-81
2021/07/18 11:44:26;;;;;;;4.65;3.30;;;;;;;;;;3595639;39;20289;-85
2021/07/18 11:47:08;;;;;;;5.90;3.20;;;;;;;;;;3602634;39;20734;-82
2021/07/18 11:49:45;;;;;;;4.30;3.17;;;;;;;;;;3602397;39;20254;-81
2021/07/18 11:52:21;;;;;;;6.40;2.58;;;;;;;;;;3602486;39;20273;-86
2021/07/18 11:54:49;;;;;;;3.70;2.65;;;;;;;;;;3602280;39;20242;-80
2021/07/18 11:57:22;;;;;;;3.45;3.08;;;;;;;;;;3602575;39;20292;-82
2021/07/18 11:59:55;;;;;;;4.60;3.25;;;;;;;;;;3602574;39;20250;-82
2021/07/18 12:02:29;;;;;;;4.22;3.40;;;;;;;;;;3602439;39;20262;-80
2021/07/18 12:05:04;;;;;;;3.38;3.08;;;;;;;;;;3602396;39;20219;-81
2021/07/18 12:07:31;;;;;;;5.40;4.82;;;;;;;;;;3602570;39;20234;-81
2021/07/18 12:10:21;;;;;;;3.20;2.47;;;;;;;;;;3602019;39;20245;-81
2021/07/18 12:12:49;;;;;;;3.42;3.13;;;;;;;;;;3602378;39;20242;-82
2021/07/18 12:15:35;;;;;;;5.07;3.05;;;;;;;;;;3602528;39;20226;-82
2021/07/18 12:18:09;;;;;;;4.97;2.85;;;;;;;;;;3602356;39;20226;-83
2021/07/18 12:20:37;;;;;;;3.13;2.83;;;;;;;;;;3602104;39;20246;-83
2021/07/18 12:23:10;;;;;;;3.28;2.95;;;;;;;;;;3602348;39;20242;-83
2021/07/18 12:25:38;;;;;;;3.50;2.58;;;;;;;;;;3601546;39;20235;-88
2021/07/18 12:28:11;;;;;;;3.13;2.83;;;;;;;;;;3635404;22;20262;-83
2021/07/18 12:30:39;;;;;;;2.60;2.40;;;;;;;;;;3594904;40;20213;-83
2021/07/18 12:33:11;;;;;;;4.90;2.90;;;;;;;;;;3602495;40;20250;-85
2021/07/18 12:35:39;;;;;;;3.20;2.75;;;;;;;;;;3603047;40;20227;-85
2021/07/18 12:38:22;;;;;;;3.88;2.53;;;;;;;;;;3636000;23;20241;-85
2021/07/18 12:43:43;;;;;;;5.20;2.55;;;;;;;;;;3632914;23;20254;-86
2021/07/18 12:46:10;;;;;;;6.93;3.75;;;;;;;;;;3583696;40;20231;-89
2021/07/18 12:48:38;;;;;;;4.75;3.17;;;;;;;;;;3651049;23;21092;-87
2021/07/18 12:53:56;;;;;;;3.85;1.98;;;;;;;;;;3601291;40;20250;-84
2021/07/18 13:13:00;;;;;;;3.72;2.10;;;;;;;;;;3591589;40;20231;-83
2021/07/18 13:31:51;;;;;;;6.10;2.13;;;;;;;;;;3601040;40;20767;-87
2021/07/18 13:34:20;;;;;;;4.88;2.15;;;;;;;;;;3593498;40;20660;-87
2021/07/18 13:36:56;;;;;;;4.45;2.15;;;;;;;;;;3601608;40;20243;-85
2021/07/18 13:39:26;;;;;;;2.38;2.17;;;;;;;;;;3602123;40;20250;-86
2021/07/18 13:42:10;;;;;;;5.50;2.22;;;;;;;;;;3593290;40;20250;-83
2021/07/18 13:47:39;;;;;;;4.75;2.50;;;;;;;;;;3601177;40;20226;-85
2021/07/18 13:50:19;;;;;;;2.63;1.80;;;;;;;;;;3601731;40;20215;-85
2021/07/18 13:52:52;;;;;;;2.63;2.17;;;;;;;;;;3601633;40;20247;-84
2021/07/18 13:55:38;;;;;;;5.53;3.28;;;;;;;;;;3593459;40;20243;-87
2021/07/18 13:58:12;;;;;;;2.72;2.05;;;;;;;;;;3601963;40;20214;-85
2021/07/18 14:00:40;;;;;;;1.50;1.40;;;;;;;;;;3603007;40;20253;-84
2021/07/18 14:03:09;;;;;;;4.75;1.92;;;;;;;;;;3594796;40;20246;-84
2021/07/18 14:05:42;;;;;;;3.17;2.65;;;;;;;;;;3603291;40;20683;-85
2021/07/18 14:08:22;;;;;;;5.18;2.83;;;;;;;;;;3595833;40;20242;-86
2021/07/18 14:11:08;;;;;;;2.00;1.52;;;;;;;;;;3603326;40;20237;-86
2021/07/18 14:13:35;;;;;;;5.10;2.65;;;;;;;;;;3594150;40;20234;-84
2021/07/18 14:16:03;;;;;;;2.95;1.48;;;;;;;;;;3602961;40;20961;-84
2021/07/18 14:18:50;;;;;;;3.33;2.17;;;;;;;;;;3634711;23;20292;-85
2021/07/18 14:21:18;;;;;;;2.33;1.75;;;;;;;;;;3590881;40;20251;-86
2021/07/18 14:23:51;;;;;;;5.38;1.70;;;;;;;;;;3592858;40;20220;-83
2021/07/18 14:26:19;;;;;;;4.53;2.30;;;;;;;;;;3593171;40;20235;-86
2021/07/18 14:29:05;;;;;;;3.55;1.67;;;;;;;;;;3574884;40;20936;-83
2021/07/18 14:31:33;;;;;;;3.65;2.30;;;;;;;;;;3586116;40;20259;-83
2021/07/18 14:34:09;;;;;;;1.40;1.30;;;;;;;;;;3765651;23;20241;-79
2021/07/18 14:36:56;;;;;;;6.53;4.78;;;;;;;;;;3585434;40;20223;-81
2021/07/18 14:39:24;;;;;;;9.75;4.32;;;;;;;;;;3687181;23;20278;-81
2021/07/18 14:42:10;;;;;;;3.85;2.42;;;;;;;;;;3635622;23;20283;-83
2021/07/18 14:44:50;;;;;;;6.63;2.72;;;;;;;;;;3602283;40;20259;-81
2021/07/18 14:52:44;;;;;;;6.05;2.60;;;;;;;;;;3668364;23;20236;-80
2021/07/18 15:00:34;;;;;;;7.35;5.60;;;;;;;;;;3626542;23;20267;-78
2021/07/18 15:03:02;;;;;;;3.45;2.97;;;;;;;;;;3572603;40;20264;-80
2021/07/18 15:05:42;;;;;;;8.23;6.50;;;;;;;;;;3605777;23;20651;-81
2021/07/18 15:08:12;;;;;;;6.07;4.10;;;;;;;;;;3606250;23;20271;-82
2021/07/18 15:10:40;;;;;;;5.35;4.82;;;;;;;;;;3571672;40;20279;-79
2021/07/18 15:16:07;;;;;;;8.15;4.40;;;;;;;;;;3667420;23;20519;-78
2021/07/18 15:18:34;;;;;;;5.53;3.40;;;;;;;;;;3704590;23;20248;-80
2021/07/18 15:21:21;;;;;;;4.13;3.22;;;;;;;;;;3774897;23;20252;-82
2021/07/18 15:24:14;;;;;;;14.30;8.95;;;;;;;;;;3715157;23;20240;-84
2021/07/18 15:26:52;;;;;;;16.30;10.75;;;;;;;;;;3699182;23;20249;-80
2021/07/18 15:29:19;;;;;;;10.45;6.30;;;;;;;;;;3612039;23;20871;-82
2021/07/18 15:34:30;;;;;;;5.53;3.65;;;;;;;;;;3636590;23;20260;-80
2021/07/18 15:37:00;;;;;;;8.48;5.50;;;;;;;;;;3638929;23;20240;-84
2021/07/18 15:45:10;;;;;;;6.10;3.10;;;;;;;;;;3636985;23;20235;-78
2021/07/18 15:47:45;;;;;;;5.65;4.22;;;;;;;;;;3632496;23;20548;-83
2021/07/18 15:53:23;;;;;;;7.43;4.95;;;;;;;;;;3635054;23;20232;-78
2021/07/18 15:55:51;;;;;;;5.38;3.80;;;;;;;;;;3619029;23;20294;-83
2021/07/18 15:58:18;;;;;;;2.40;2.20;;;;;;;;;;3675810;23;20224;31
2021/07/18 16:00:46;;;;;;;4.63;3.13;;;;;;;;;;3633220;23;20780;-84
2021/07/18 16:05:55;;;;;;;4.20;3.75;;;;;;;;;;3645233;23;20249;-83
2021/07/18 16:08:24;;;;;;;4.38;3.92;;;;;;;;;;3572501;40;20220;-83
2021/07/18 16:10:57;;;;;;;6.28;3.75;;;;;;;;;;3630454;23;20274;-84
2021/07/18 16:13:24;;;;;;;5.32;3.85;;;;;;;;;;3570033;40;20245;-85
2021/07/18 16:16:10;;;;;;;5.18;3.47;;;;;;;;;;3561496;40;20261;-84
2021/07/18 16:22:06;;;;;;;6.07;4.32;;;;;;;;;;3571144;40;20253;-80
2021/07/18 16:24:40;;;;;;;9.27;4.78;;;;;;;;;;3572623;40;20244;-84
2021/07/18 16:27:14;;;;;;;8.80;3.95;;;;;;;;;;3729551;23;20310;-80
2021/07/18 16:35:11;;;;;;;4.18;2.53;;;;;;;;;;3615454;23;20231;-81
2021/07/18 16:37:57;;;;;;;5.22;3.78;;;;;;;;;;3612370;23;20271;-84
2021/07/18 16:40:32;;;;;;;9.15;5.65;;;;;;;;;;3644773;23;20262;-84